Terminal Aerodrome Forecast
Issued by NWS

Home | Current Version | Previous Version | Text Only | Print | Product List | Glossary On
Versions: 1 2 3 4 5 6 7 8 9 10 11 12 13 14 15 16
960
FTUS41 KCAR 251120
TAFBHB
TAF
KBHB 251120Z 2512/2612 18008KT P6SM SCT170
     FM252100 14007KT 5SM -RA OVC017
     FM260200 14011KT 1/4SM +RA FG OVC006
     FM260400 14013KT 1SM +RA BR OVC004 WS020/16040KT
     FM261100 15009KT 1SM +RA BR OVC005=

USA.gov is the U.S. government's official web portal to all federal, state and local government web resources and services.